createdAt,value
2023-01-03T00:00:21.022Z,7.55
2023-01-03T00:01:20.894Z,7.55
2023-01-03T00:02:20.905Z,7.57
2023-01-03T00:03:20.848Z,7.55
2023-01-03T00:04:20.956Z,7.52
2023-01-03T00:05:20.837Z,7.50
2023-01-03T00:06:20.839Z,7.48
2023-01-03T00:07:20.802Z,7.45
2023-01-03T00:08:20.818Z,7.42
2023-01-03T00:09:20.782Z,7.39
2023-01-03T00:10:20.781Z,7.37
2023-01-03T00:11:20.779Z,7.36
2023-01-03T00:12:21.827Z,7.33
2023-01-03T00:13:20.742Z,7.30
2023-01-03T00:14:20.736Z,7.30
2023-01-03T00:15:20.721Z,7.32
2023-01-03T00:16:20.857Z,7.30
2023-01-03T00:17:20.750Z,7.30
2023-01-03T00:18:20.689Z,7.30
2023-01-03T00:19:20.669Z,7.32
2023-01-03T00:20:20.688Z,7.33
2023-01-03T00:21:20.662Z,7.27
2023-01-03T00:22:20.653Z,7.26
2023-01-03T00:23:20.641Z,7.24
2023-01-03T00:24:20.619Z,7.26
2023-01-03T00:25:20.604Z,7.26
2023-01-03T00:26:20.611Z,7.26
2023-01-03T00:27:20.588Z,7.23
2023-01-03T00:28:20.578Z,7.21
2023-01-03T00:29:20.564Z,7.21
2023-01-03T00:30:20.549Z,7.21
2023-01-03T00:31:20.629Z,7.21
2023-01-03T00:32:20.531Z,7.16
2023-01-03T00:33:20.516Z,7.16
2023-01-03T00:34:20.508Z,7.15
2023-01-03T00:35:20.495Z,7.12
2023-01-03T00:36:20.504Z,7.12
2023-01-03T00:37:20.490Z,7.08
2023-01-03T00:38:20.466Z,7.01
2023-01-03T00:39:20.456Z,7.00
2023-01-03T00:40:20.443Z,6.97
2023-01-03T00:41:20.445Z,6.94
2023-01-03T00:42:20.422Z,6.93
2023-01-03T00:43:20.408Z,6.90
2023-01-03T00:44:20.406Z,6.83
2023-01-03T00:45:21.749Z,6.81
2023-01-03T00:46:20.465Z,6.76
2023-01-03T00:47:20.364Z,6.73
2023-01-03T00:48:20.359Z,6.69
2023-01-03T00:49:20.337Z,6.64
2023-01-03T00:50:20.333Z,6.64
2023-01-03T00:51:20.344Z,6.63
2023-01-03T00:52:20.314Z,6.60
2023-01-03T00:53:20.294Z,6.57
2023-01-03T00:54:20.293Z,6.55
2023-01-03T00:55:20.273Z,6.55
2023-01-03T00:56:20.282Z,6.58
2023-01-03T00:57:20.248Z,6.57
2023-01-03T00:58:20.245Z,6.60
2023-01-03T00:59:20.234Z,6.61
2023-01-03T01:00:20.225Z,6.60
2023-01-03T01:01:20.396Z,6.61
2023-01-03T01:02:20.473Z,6.63
2023-01-03T01:03:20.354Z,6.69
2023-01-03T01:04:20.179Z,6.69
2023-01-03T01:05:20.161Z,6.71
2023-01-03T01:06:20.177Z,6.73
2023-01-03T01:07:20.144Z,6.73
2023-01-03T01:08:20.143Z,6.76
2023-01-03T01:09:20.115Z,6.78
2023-01-03T01:10:20.113Z,6.82
2023-01-03T01:11:20.108Z,6.82
2023-01-03T01:12:20.099Z,6.82
2023-01-03T01:13:20.074Z,6.83
2023-01-03T01:14:20.247Z,6.86
2023-01-03T01:15:20.054Z,6.87
2023-01-03T01:16:20.102Z,6.87
2023-01-03T01:17:22.835Z,6.89
2023-01-03T01:18:20.032Z,6.87
2023-01-03T01:19:20.006Z,6.89
2023-01-03T01:20:20.012Z,6.89
2023-01-03T01:21:19.998Z,6.89
2023-01-03T01:22:19.987Z,6.87
2023-01-03T01:23:19.973Z,6.86
2023-01-03T01:24:19.961Z,6.86
2023-01-03T01:25:19.955Z,6.86
2023-01-03T01:26:19.957Z,6.87
2023-01-03T01:27:19.926Z,6.86
2023-01-03T01:28:19.909Z,6.86
2023-01-03T01:29:19.909Z,6.87
2023-01-03T01:30:19.886Z,6.87
2023-01-03T01:31:19.990Z,6.90
2023-01-03T01:32:19.868Z,6.90
2023-01-03T01:33:19.866Z,6.91
2023-01-03T01:34:19.854Z,6.93
2023-01-03T01:35:19.843Z,6.96
2023-01-03T01:36:19.853Z,6.96
2023-01-03T01:37:19.814Z,6.94
2023-01-03T01:38:19.808Z,6.94
2023-01-03T01:39:19.791Z,6.93
2023-01-03T01:40:19.780Z,6.89
2023-01-03T01:41:19.794Z,6.87
2023-01-03T01:42:20.591Z,6.89
2023-01-03T01:43:19.747Z,6.87
2023-01-03T01:44:19.730Z,6.87
2023-01-03T01:45:19.736Z,6.87
2023-01-03T01:46:19.809Z,6.86
2023-01-03T01:47:19.710Z,6.83
2023-01-03T01:48:19.690Z,6.83
2023-01-03T01:49:19.686Z,6.79
2023-01-03T01:50:19.680Z,6.79
2023-01-03T01:51:19.672Z,6.76
2023-01-03T01:52:19.646Z,6.75
2023-01-03T01:53:19.650Z,6.75
2023-01-03T01:54:19.629Z,6.78
2023-01-03T01:55:19.619Z,6.76
2023-01-03T01:56:19.616Z,6.76
2023-01-03T01:57:19.597Z,6.79
2023-01-03T01:58:19.585Z,6.79
2023-01-03T01:59:19.566Z,6.79
2023-01-03T02:00:19.561Z,6.79
2023-01-03T02:01:19.735Z,6.79
2023-01-03T02:02:19.650Z,6.81
2023-01-03T02:03:19.550Z,6.81
2023-01-03T02:04:19.526Z,6.81
2023-01-03T02:05:19.503Z,6.79
2023-01-03T02:06:19.520Z,6.79
2023-01-03T02:07:19.480Z,6.78
2023-01-03T02:08:19.476Z,6.78
2023-01-03T02:09:19.463Z,6.76
2023-01-03T02:10:19.456Z,6.76
2023-01-03T02:11:19.450Z,6.79
2023-01-03T02:12:19.432Z,6.79
2023-01-03T02:13:19.420Z,6.79
2023-01-03T02:14:19.420Z,6.81
2023-01-03T02:15:19.391Z,6.82
2023-01-03T02:16:19.467Z,6.82
2023-01-03T02:17:19.377Z,6.82
2023-01-03T02:18:19.373Z,6.82
2023-01-03T02:19:19.350Z,6.83
2023-01-03T02:20:19.342Z,6.87
2023-01-03T02:21:20.355Z,6.87
2023-01-03T02:22:19.322Z,6.89
2023-01-03T02:23:19.326Z,6.89
2023-01-03T02:24:19.307Z,6.87
2023-01-03T02:25:19.291Z,6.89
2023-01-03T02:26:19.326Z,6.91
2023-01-03T02:27:19.260Z,6.90
2023-01-03T02:28:19.252Z,6.90
2023-01-03T02:29:19.264Z,6.90
2023-01-03T02:30:19.235Z,6.93
2023-01-03T02:31:19.429Z,6.91
2023-01-03T02:32:19.216Z,6.93
2023-01-03T02:33:19.207Z,6.90
2023-01-03T02:34:19.201Z,6.90
2023-01-03T02:35:19.172Z,6.90
2023-01-03T02:36:19.183Z,6.89
2023-01-03T02:37:19.158Z,6.89
2023-01-03T02:38:19.141Z,6.90
2023-01-03T02:39:23.490Z,6.90
2023-01-03T02:43:52.593Z,6.91
2023-01-03T02:44:53.574Z,6.90
2023-01-03T02:45:53.564Z,6.90
2023-01-03T02:46:53.600Z,6.90
2023-01-03T02:47:53.548Z,6.90
2023-01-03T02:48:53.539Z,6.90
2023-01-03T02:49:53.518Z,6.90
2023-01-03T02:50:53.503Z,6.89
2023-01-03T02:51:53.506Z,6.90
2023-01-03T02:52:53.485Z,6.90
2023-01-03T02:53:53.487Z,6.91
2023-01-03T02:54:53.462Z,6.89
2023-01-03T02:55:53.464Z,6.89
2023-01-03T02:56:53.446Z,6.89
2023-01-03T02:57:53.437Z,6.90
2023-01-03T02:58:53.425Z,6.89
2023-01-03T02:59:53.418Z,6.89
2023-01-03T03:00:53.410Z,6.89
2023-01-03T03:01:53.601Z,6.91
2023-01-03T03:02:53.519Z,6.91
2023-01-03T03:03:53.456Z,6.93
2023-01-03T03:04:53.353Z,6.94
2023-01-03T03:05:53.344Z,6.93
2023-01-03T03:06:53.331Z,6.91
2023-01-03T03:07:53.340Z,6.91
2023-01-03T03:08:53.315Z,6.93
2023-01-03T03:09:53.296Z,6.93
2023-01-03T03:10:53.290Z,6.93
2023-01-03T03:11:53.278Z,6.93
2023-01-03T03:12:53.262Z,6.93
2023-01-03T03:13:53.274Z,6.91
2023-01-03T03:14:53.236Z,6.91
2023-01-03T03:15:53.403Z,6.93
2023-01-03T03:16:53.224Z,6.94
2023-01-03T03:17:53.214Z,6.93
2023-01-03T03:18:53.206Z,6.93
2023-01-03T03:20:22.212Z,6.93
2023-01-03T03:20:53.405Z,6.93
2023-01-03T03:21:53.200Z,6.93
2023-01-03T03:22:53.154Z,6.96
2023-01-03T03:23:53.391Z,6.96
2023-01-03T03:24:53.366Z,6.97
2023-01-03T03:25:53.127Z,6.97
2023-01-03T03:26:53.108Z,6.97
2023-01-03T03:27:53.099Z,6.97
2023-01-03T03:28:53.863Z,6.97
2023-01-03T03:29:54.625Z,6.96
2023-01-03T03:30:53.098Z,6.94
2023-01-03T03:31:54.660Z,6.96
2023-01-03T03:32:53.046Z,6.97
2023-01-03T03:33:54.592Z,6.94
2023-01-03T03:34:54.625Z,6.93
2023-01-03T03:35:57.877Z,6.91
2023-01-03T03:36:53.698Z,6.91
2023-01-03T03:37:52.987Z,6.90
2023-01-03T03:38:53.214Z,6.90
2023-01-03T03:39:52.967Z,6.87
2023-01-03T03:41:00.102Z,6.86
2023-01-03T03:41:53.099Z,6.83
2023-01-03T03:43:07.559Z,6.83
2023-01-03T03:43:59.936Z,6.81
2023-01-03T03:45:01.469Z,6.79
2023-01-03T03:45:52.905Z,6.81
2023-01-03T03:46:55.120Z,6.79
2023-01-03T03:47:52.888Z,6.76
2023-01-03T03:48:53.120Z,6.75
2023-01-03T03:49:52.865Z,6.75
2023-01-03T03:50:53.545Z,6.76
2023-01-03T03:51:54.470Z,6.76
2023-01-03T03:52:54.366Z,6.76
2023-01-03T03:53:54.397Z,6.75
2023-01-03T03:54:53.024Z,6.75
2023-01-03T03:56:19.510Z,6.76
2023-01-03T03:56:53.498Z,6.75
2023-01-03T03:58:51.328Z,6.73
2023-01-03T03:58:56.228Z,6.72
2023-01-03T04:01:53.729Z,6.71
2023-01-03T04:02:05.769Z,6.64
2023-01-03T04:02:59.490Z,6.63
2023-01-03T04:03:58.716Z,6.61
2023-01-03T04:04:58.629Z,6.60
2023-01-03T04:07:56.101Z,6.58
2023-01-03T04:08:02.549Z,6.55
2023-01-03T04:09:04.345Z,6.57
2023-01-03T04:10:00.948Z,6.55
2023-01-03T04:11:01.161Z,6.57
2023-01-03T04:12:01.183Z,6.58
2023-01-03T04:13:00.910Z,6.55
2023-01-03T04:14:01.142Z,6.55
2023-01-03T04:24:55.735Z,6.57
2023-01-03T04:25:00.826Z,6.64
2023-01-03T04:26:04.156Z,6.65
2023-01-03T04:27:01.476Z,6.64
2023-01-03T04:28:01.414Z,6.68
2023-01-03T04:29:02.270Z,6.65
2023-01-03T04:30:15.237Z,6.65
2023-01-03T04:31:02.303Z,6.65
2023-01-03T04:32:00.984Z,6.65
2023-01-03T04:33:00.949Z,6.68
2023-01-03T04:34:01.420Z,6.71
2023-01-03T04:35:00.838Z,6.72
2023-01-03T04:36:00.682Z,6.68
2023-01-03T04:37:00.669Z,6.65
2023-01-03T04:38:00.663Z,6.65
2023-01-03T04:39:00.663Z,6.65
2023-01-03T04:40:00.866Z,6.64
2023-01-03T04:41:00.849Z,6.63
2023-01-03T04:42:00.622Z,6.58
2023-01-03T04:43:00.825Z,6.58
2023-01-03T04:47:58.396Z,6.55
2023-01-03T04:48:03.287Z,6.42
2023-01-03T04:49:03.972Z,6.38
2023-01-03T04:50:03.870Z,6.30
2023-01-03T04:51:04.848Z,6.24
2023-01-03T04:52:03.227Z,6.21
2023-01-03T04:53:06.587Z,6.21
2023-01-03T04:54:03.215Z,6.19
2023-01-03T04:55:03.215Z,6.14
2023-01-03T04:56:04.249Z,6.10
2023-01-03T04:57:03.187Z,6.08
2023-01-03T04:58:03.170Z,6.03
2023-01-03T04:59:03.181Z,5.99
2023-01-03T05:00:04.698Z,5.98
2023-01-03T05:01:30.210Z,5.95
2023-01-03T05:02:03.290Z,5.92
2023-01-03T05:03:10.268Z,5.90
2023-01-03T05:04:03.194Z,5.88
2023-01-03T05:05:03.098Z,5.88
2023-01-03T05:07:01.182Z,5.90
2023-01-03T05:07:20.639Z,5.87
2023-01-03T05:08:09.453Z,5.83
2023-01-03T05:09:06.045Z,5.78
2023-01-03T05:10:06.043Z,5.77
2023-01-03T05:11:06.020Z,5.74
2023-01-03T05:12:06.008Z,5.70
2023-01-03T05:13:06.027Z,5.67
2023-01-03T05:14:09.276Z,5.66
2023-01-03T05:15:09.443Z,5.66
2023-01-03T05:16:06.164Z,5.63
2023-01-03T05:17:06.670Z,5.63
2023-01-03T05:18:06.575Z,5.63
2023-01-03T05:19:05.946Z,5.67
2023-01-03T05:20:09.316Z,5.60
2023-01-03T05:21:05.914Z,5.60
2023-01-03T05:22:32.756Z,5.60
2023-01-03T05:23:05.883Z,5.60
2023-01-03T05:24:09.240Z,5.51
2023-01-03T05:25:06.497Z,5.49
2023-01-03T05:26:05.869Z,5.48
2023-01-03T05:27:05.845Z,5.47
2023-01-03T05:28:18.101Z,5.47
2023-01-03T05:29:06.541Z,5.47
2023-01-03T05:30:05.823Z,5.48
2023-01-03T05:31:06.029Z,5.49
2023-01-03T05:32:05.857Z,5.45
2023-01-03T05:33:06.397Z,5.45
2023-01-03T05:34:07.338Z,5.44
2023-01-03T05:35:05.771Z,5.40
2023-01-03T05:36:05.970Z,5.35
2023-01-03T05:37:09.083Z,5.24
2023-01-03T05:38:05.723Z,5.20
2023-01-03T05:39:06.405Z,5.15
2023-01-03T05:40:09.116Z,5.11
2023-01-03T05:41:05.826Z,5.08
2023-01-03T05:42:05.671Z,5.08
2023-01-03T05:43:17.946Z,5.04
2023-01-03T05:44:05.651Z,5.02
2023-01-03T05:45:05.666Z,5.01
2023-01-03T05:46:05.732Z,5.01
2023-01-03T05:47:05.635Z,5.02
2023-01-03T05:48:05.605Z,5.04
2023-01-03T05:49:12.899Z,5.06
2023-01-03T05:50:07.167Z,5.09
2023-01-03T05:51:05.710Z,5.12
2023-01-03T05:52:06.700Z,5.17
2023-01-03T05:53:05.553Z,5.20
2023-01-03T05:54:05.781Z,5.22
2023-01-03T05:55:05.520Z,5.22
2023-01-03T05:56:05.764Z,5.24
2023-01-03T05:57:08.968Z,5.24
2023-01-03T05:58:06.145Z,5.30
2023-01-03T05:59:05.700Z,5.30
2023-01-03T06:00:07.036Z,5.30
2023-01-03T06:01:05.788Z,5.32
2023-01-03T06:02:05.616Z,5.32
2023-01-03T06:03:05.727Z,5.35
2023-01-03T06:04:07.111Z,5.38
2023-01-03T06:05:05.419Z,5.42
2023-01-03T06:06:05.425Z,5.45
2023-01-03T06:07:05.619Z,5.47
2023-01-03T06:08:05.609Z,5.47
2023-01-03T06:09:06.065Z,5.48
2023-01-03T06:10:05.367Z,5.48
2023-01-03T06:11:05.360Z,5.48
2023-01-03T06:12:05.566Z,5.49
2023-01-03T06:13:05.326Z,5.48
2023-01-03T06:14:06.027Z,5.47
2023-01-03T06:15:05.946Z,5.45
2023-01-03T06:16:07.107Z,5.47
2023-01-03T06:17:05.343Z,5.47
2023-01-03T06:18:06.889Z,5.45
2023-01-03T06:19:05.267Z,5.45
2023-01-03T06:20:05.487Z,5.44
2023-01-03T06:21:05.248Z,5.41
2023-01-03T06:22:10.570Z,5.40
2023-01-03T06:23:05.220Z,5.37
2023-01-03T06:24:34.768Z,5.35
2023-01-03T06:25:12.481Z,5.32
2023-01-03T06:26:06.749Z,5.29
2023-01-03T06:27:05.182Z,5.26
2023-01-03T06:28:05.163Z,5.22
2023-01-03T06:29:05.154Z,5.19
2023-01-03T06:30:06.232Z,5.14
2023-01-03T06:31:05.473Z,5.09
2023-01-03T06:32:09.217Z,5.05
2023-01-03T06:33:05.128Z,4.99
2023-01-03T06:34:05.102Z,4.93
2023-01-03T06:35:05.079Z,4.88
2023-01-03T06:36:05.096Z,4.84
2023-01-03T06:37:06.719Z,4.84
2023-01-03T06:38:05.056Z,4.83
2023-01-03T06:39:05.733Z,4.80
2023-01-03T06:40:05.037Z,4.79
2023-01-03T06:41:05.692Z,4.74
2023-01-03T06:42:05.018Z,4.72
2023-01-03T06:43:08.459Z,4.69
2023-01-03T06:44:04.989Z,4.71
2023-01-03T06:45:05.207Z,4.71
2023-01-03T06:46:05.062Z,4.72
2023-01-03T06:47:05.569Z,4.74
2023-01-03T06:48:06.567Z,4.77
2023-01-03T06:49:04.930Z,4.80
2023-01-03T06:50:04.928Z,4.84
2023-01-03T06:51:12.039Z,4.86
2023-01-03T06:52:04.901Z,4.88
2023-01-03T06:53:04.883Z,4.90
2023-01-03T06:54:05.107Z,4.91
2023-01-03T06:55:06.428Z,4.90
2023-01-03T06:56:05.090Z,4.91
2023-01-03T06:57:05.079Z,4.93
2023-01-03T06:58:04.836Z,4.97
2023-01-03T06:59:05.507Z,5.02
2023-01-03T07:00:04.807Z,5.05
2023-01-03T07:01:04.917Z,5.09
2023-01-03T07:02:05.135Z,5.12
2023-01-03T07:03:10.873Z,5.12
2023-01-03T07:04:05.521Z,5.15
2023-01-03T07:05:04.778Z,5.17
2023-01-03T07:06:04.756Z,5.19
2023-01-03T07:07:04.755Z,5.24
2023-01-03T07:08:06.303Z,5.30
2023-01-03T07:09:05.340Z,5.33
2023-01-03T07:10:06.274Z,5.33
2023-01-03T07:11:04.696Z,5.33
2023-01-03T07:12:04.904Z,5.33
2023-01-03T07:13:04.662Z,5.37
2023-01-03T07:14:04.663Z,5.40
2023-01-03T07:15:04.868Z,5.42
2023-01-03T07:16:04.758Z,5.44
2023-01-03T07:17:04.619Z,5.48
2023-01-03T07:18:04.616Z,5.49
2023-01-03T07:19:04.602Z,5.51
2023-01-03T07:20:05.288Z,5.52
2023-01-03T07:21:04.807Z,5.56
2023-01-03T07:22:04.586Z,5.59
2023-01-03T07:23:04.775Z,5.62
2023-01-03T07:24:12.094Z,5.66
2023-01-03T07:25:05.211Z,5.67
2023-01-03T07:26:04.749Z,5.70
2023-01-03T07:27:04.743Z,5.70
2023-01-03T07:28:08.127Z,5.74
2023-01-03T07:29:04.481Z,5.75
2023-01-03T07:30:05.527Z,5.78
2023-01-03T07:31:04.515Z,5.80
2023-01-03T07:32:04.464Z,5.80
2023-01-03T07:33:04.441Z,5.81
2023-01-03T07:34:04.659Z,5.84
2023-01-03T07:35:31.258Z,5.84
2023-01-03T07:36:11.772Z,5.84
2023-01-03T07:37:04.626Z,5.83
2023-01-03T07:38:11.624Z,5.84
2023-01-03T07:40:59.451Z,5.81
2023-01-03T07:41:04.556Z,5.78
2023-01-03T07:42:04.310Z,5.78
2023-01-03T07:43:04.287Z,5.78
2023-01-03T07:44:04.965Z,5.73
2023-01-03T07:45:04.275Z,5.70
2023-01-03T07:46:04.286Z,5.66
2023-01-03T07:47:04.286Z,5.63
2023-01-03T07:48:05.796Z,5.59
2023-01-03T07:49:11.028Z,5.52
2023-01-03T07:50:04.355Z,5.49
2023-01-03T07:51:04.199Z,5.45
2023-01-03T07:52:04.429Z,5.40
2023-01-03T07:53:04.394Z,5.35
2023-01-03T07:58:37.465Z,5.20
2023-01-03T07:59:38.468Z,5.17
2023-01-03T08:00:38.438Z,5.12
2023-01-03T08:01:38.577Z,5.08
2023-01-03T08:02:38.595Z,5.05
2023-01-03T08:03:38.418Z,5.02
2023-01-03T08:04:38.659Z,4.99
2023-01-03T08:05:38.392Z,4.97
2023-01-03T08:06:38.376Z,4.94
2023-01-03T08:07:38.459Z,4.93
2023-01-03T08:08:38.359Z,4.91
2023-01-03T08:09:38.356Z,4.93
2023-01-03T08:10:38.331Z,4.94
2023-01-03T08:11:38.322Z,4.94
2023-01-03T08:12:38.330Z,4.96
2023-01-03T08:13:38.296Z,4.96
2023-01-03T08:14:38.285Z,4.96
2023-01-03T08:15:38.321Z,4.97
2023-01-03T08:16:38.332Z,5.01
2023-01-03T08:17:38.276Z,4.99
2023-01-03T08:18:38.237Z,5.01
2023-01-03T08:19:45.119Z,5.01
2023-01-03T08:20:38.232Z,4.99
2023-01-03T08:21:38.215Z,4.97
2023-01-03T08:22:38.209Z,4.94
2023-01-03T08:23:38.194Z,4.93
2023-01-03T08:24:38.175Z,4.90
2023-01-03T08:25:38.198Z,4.90
2023-01-03T08:26:38.154Z,4.88
2023-01-03T08:27:38.170Z,4.87
2023-01-03T08:28:38.140Z,4.87
2023-01-03T08:29:38.130Z,4.87
2023-01-03T08:30:38.116Z,4.86
2023-01-03T08:31:38.187Z,4.84
2023-01-03T08:32:38.098Z,4.86
2023-01-03T08:33:38.084Z,4.84
2023-01-03T08:34:38.062Z,4.84
2023-01-03T08:35:38.062Z,4.83
2023-01-03T08:36:38.047Z,4.84
2023-01-03T08:37:38.052Z,4.83
2023-01-03T08:38:38.021Z,4.83
2023-01-03T08:39:38.022Z,4.80
2023-01-03T08:40:41.935Z,4.80
2023-01-03T08:41:37.993Z,4.80
2023-01-03T08:42:37.991Z,4.84
2023-01-03T08:43:37.991Z,4.83
2023-01-03T08:44:37.971Z,4.83
2023-01-03T08:45:37.952Z,4.80
2023-01-03T08:46:37.971Z,4.83
2023-01-03T08:47:37.938Z,4.80
2023-01-03T08:48:37.914Z,4.80
2023-01-03T08:49:37.911Z,4.79
2023-01-03T08:50:37.894Z,4.79
2023-01-03T08:51:37.893Z,4.79
2023-01-03T08:52:37.878Z,4.77
2023-01-03T08:53:37.864Z,4.80
2023-01-03T08:54:37.853Z,4.80
2023-01-03T08:55:37.887Z,4.80
2023-01-03T08:56:37.825Z,4.79
2023-01-03T08:57:37.871Z,4.80
2023-01-03T08:58:37.932Z,4.80
2023-01-03T08:59:37.796Z,4.84
2023-01-03T09:00:37.821Z,4.87
2023-01-03T09:01:37.906Z,4.93
2023-01-03T09:02:38.002Z,4.94
2023-01-03T09:03:37.848Z,4.97
2023-01-03T09:04:37.737Z,4.97
2023-01-03T09:05:37.804Z,4.97
2023-01-03T09:06:37.776Z,4.97
2023-01-03T09:07:37.739Z,5.01
2023-01-03T09:08:37.730Z,5.04
2023-01-03T09:09:37.699Z,5.04
2023-01-03T09:10:40.856Z,5.04
2023-01-03T09:11:37.671Z,5.08
2023-01-03T09:12:37.651Z,5.11
2023-01-03T09:13:37.687Z,5.17
2023-01-03T09:14:37.629Z,5.22
2023-01-03T09:15:37.620Z,5.26
2023-01-03T09:16:37.641Z,5.32
2023-01-03T09:17:37.603Z,5.35
2023-01-03T09:18:37.591Z,5.38
2023-01-03T09:19:37.574Z,5.40
2023-01-03T09:20:37.580Z,5.44
2023-01-03T09:21:37.552Z,5.47
2023-01-03T09:22:37.535Z,5.48
2023-01-03T09:23:37.577Z,5.51
2023-01-03T09:24:37.516Z,5.55
2023-01-03T09:25:37.864Z,5.58
2023-01-03T09:26:37.491Z,5.60
2023-01-03T09:27:37.506Z,5.60
2023-01-03T09:28:37.519Z,5.63
2023-01-03T09:29:37.464Z,5.70
2023-01-03T09:30:37.462Z,5.75
2023-01-03T09:31:39.973Z,5.77
2023-01-03T09:32:37.432Z,5.78
2023-01-03T09:33:37.453Z,5.80
2023-01-03T09:34:37.403Z,5.81
2023-01-03T09:35:37.399Z,5.81
2023-01-03T09:36:37.390Z,5.84
2023-01-03T09:37:37.391Z,5.84
2023-01-03T09:38:37.366Z,5.84
2023-01-03T09:39:37.357Z,5.85
2023-01-03T09:40:37.341Z,5.88
2023-01-03T09:41:37.331Z,5.90
2023-01-03T09:42:37.326Z,5.93
2023-01-03T09:43:37.323Z,5.96
2023-01-03T09:44:37.299Z,5.98
2023-01-03T09:45:37.288Z,5.98
2023-01-03T09:46:37.358Z,5.99
2023-01-03T09:47:37.273Z,6.02
2023-01-03T09:48:37.258Z,6.03
2023-01-03T09:49:43.857Z,6.03
2023-01-03T09:50:57.070Z,6.05
2023-01-03T09:51:37.241Z,6.10
2023-01-03T09:52:37.202Z,6.10
2023-01-03T09:53:37.218Z,6.11
2023-01-03T09:54:37.180Z,6.10
2023-01-03T09:55:37.172Z,6.11
2023-01-03T09:56:37.158Z,6.11
2023-01-03T09:57:37.152Z,6.11
2023-01-03T09:58:37.143Z,6.11
2023-01-03T09:59:37.127Z,6.10
2023-01-03T10:00:37.183Z,6.11
2023-01-03T10:01:37.243Z,6.11
2023-01-03T10:02:37.215Z,6.11
2023-01-03T10:03:37.194Z,6.13
2023-01-03T10:04:37.075Z,6.14
2023-01-03T10:05:37.064Z,6.19
2023-01-03T10:06:37.075Z,6.25
2023-01-03T10:07:37.044Z,6.28
2023-01-03T10:08:37.034Z,6.36
2023-01-03T10:09:37.027Z,6.42
2023-01-03T10:10:37.000Z,6.50
2023-01-03T10:11:37.000Z,6.55
2023-01-03T10:12:36.980Z,6.63
2023-01-03T10:13:36.975Z,6.71
2023-01-03T10:14:36.981Z,6.73
2023-01-03T10:15:36.953Z,6.73
2023-01-03T10:16:36.987Z,6.75
2023-01-03T10:17:36.938Z,6.75
2023-01-03T10:18:36.922Z,6.76
2023-01-03T10:19:36.923Z,6.79
2023-01-03T10:20:36.906Z,6.81
2023-01-03T10:21:36.887Z,6.89
2023-01-03T10:22:36.871Z,6.93
2023-01-03T10:23:36.865Z,6.97
2023-01-03T10:24:36.858Z,7.00
2023-01-03T10:25:36.841Z,7.07
2023-01-03T10:26:36.829Z,7.09
2023-01-03T10:27:36.829Z,7.12
2023-01-03T10:28:36.818Z,7.15
2023-01-03T10:29:36.818Z,7.19
2023-01-03T10:30:36.807Z,7.21
2023-01-03T10:31:36.824Z,7.23
2023-01-03T10:32:36.787Z,7.24
2023-01-03T10:33:36.760Z,7.23
2023-01-03T10:34:36.765Z,7.24
2023-01-03T10:35:36.800Z,7.29
2023-01-03T10:36:36.735Z,7.33
2023-01-03T10:37:36.707Z,7.32
2023-01-03T10:38:43.578Z,7.36
2023-01-03T10:39:36.713Z,7.39
2023-01-03T10:40:36.691Z,7.42
2023-01-03T10:41:36.669Z,7.44
2023-01-03T10:42:36.655Z,7.45
2023-01-03T10:43:36.638Z,7.47
2023-01-03T10:44:36.646Z,7.47
2023-01-03T10:45:42.743Z,7.45
2023-01-03T10:46:36.709Z,7.47
2023-01-03T10:47:36.603Z,7.48
2023-01-03T10:48:59.928Z,7.48
2023-01-03T10:49:36.599Z,7.52
2023-01-03T10:50:36.567Z,7.48
2023-01-03T10:51:42.508Z,7.48
2023-01-03T10:52:36.549Z,7.48
2023-01-03T10:53:36.529Z,7.50
2023-01-03T10:54:36.531Z,7.50
2023-01-03T10:55:36.505Z,7.52
2023-01-03T10:56:36.504Z,7.52
2023-01-03T10:57:36.486Z,7.51
2023-01-03T10:58:36.797Z,7.51
2023-01-03T10:59:36.469Z,7.51
2023-01-03T11:00:36.450Z,7.48
2023-01-03T11:01:36.557Z,7.45
2023-01-03T11:02:36.676Z,7.44
2023-01-03T11:03:36.461Z,7.44
2023-01-03T11:04:36.449Z,7.44
2023-01-03T11:05:36.397Z,7.45
2023-01-03T11:06:36.397Z,7.42
2023-01-03T11:07:36.369Z,7.47
2023-01-03T11:08:36.361Z,7.50
2023-01-03T11:09:36.352Z,7.50
2023-01-03T11:10:36.361Z,7.54
2023-01-03T11:11:36.337Z,7.57
2023-01-03T11:12:36.357Z,7.60
2023-01-03T11:13:36.311Z,7.67
2023-01-03T11:14:36.294Z,7.74
2023-01-03T11:15:39.072Z,7.79
2023-01-03T11:16:36.312Z,7.85
2023-01-03T11:17:36.264Z,7.89
2023-01-03T11:18:36.253Z,7.92
2023-01-03T11:19:36.234Z,7.96
2023-01-03T11:20:36.238Z,8.02
2023-01-03T11:21:36.214Z,8.02
2023-01-03T11:22:38.136Z,8.00
2023-01-03T11:23:36.190Z,7.96
2023-01-03T11:24:36.186Z,7.95
2023-01-03T11:25:37.183Z,7.95
2023-01-03T11:26:36.163Z,7.94
2023-01-03T11:27:36.146Z,7.99
2023-01-03T11:28:36.142Z,8.02
2023-01-03T11:29:36.154Z,8.04
2023-01-03T11:30:36.136Z,8.06
2023-01-03T11:31:36.133Z,8.12
2023-01-03T11:32:36.113Z,8.12
2023-01-03T11:33:36.074Z,8.17
2023-01-03T11:35:11.662Z,8.24
2023-01-03T11:35:36.069Z,8.25
2023-01-03T11:36:36.055Z,8.29
2023-01-03T11:37:36.040Z,8.34
2023-01-03T11:38:36.027Z,8.40
2023-01-03T11:39:36.017Z,8.45
2023-01-03T11:40:36.031Z,8.47
2023-01-03T11:41:35.996Z,8.52
2023-01-03T11:42:35.979Z,8.54
2023-01-03T11:43:35.969Z,8.52
2023-01-03T11:44:35.953Z,8.52
2023-01-03T11:45:36.057Z,8.52
2023-01-03T11:46:35.974Z,8.57
2023-01-03T11:47:35.934Z,8.61
2023-01-03T11:48:35.920Z,8.63
2023-01-03T11:49:35.905Z,8.64
2023-01-03T11:50:35.904Z,8.70
2023-01-03T11:51:35.886Z,8.70
2023-01-03T11:52:35.866Z,8.70
2023-01-03T11:53:35.865Z,8.71
2023-01-03T11:54:35.845Z,8.75
2023-01-03T11:55:35.850Z,8.76
2023-01-03T11:56:35.839Z,8.71
2023-01-03T11:57:35.840Z,8.73
2023-01-03T11:58:35.828Z,8.73
2023-01-03T11:59:35.799Z,8.75
2023-01-03T12:00:35.805Z,8.75
2023-01-03T12:01:39.563Z,8.76
2023-01-03T12:02:35.778Z,8.76
2023-01-03T12:03:35.847Z,8.76
2023-01-03T12:04:35.811Z,8.71
2023-01-03T12:05:35.751Z,8.68
2023-01-03T12:06:35.724Z,8.65
2023-01-03T12:07:47.410Z,8.65
2023-01-03T12:08:35.696Z,8.67
2023-01-03T12:09:35.687Z,8.68
2023-01-03T12:10:35.673Z,8.67
2023-01-03T12:11:35.685Z,8.67
2023-01-03T12:12:35.646Z,8.68
2023-01-03T12:13:35.644Z,8.67
2023-01-03T12:14:35.628Z,8.68
2023-01-03T12:15:35.739Z,8.65
2023-01-03T12:16:35.639Z,8.67
2023-01-03T12:17:35.610Z,8.68
2023-01-03T12:18:35.603Z,8.70
2023-01-03T12:19:35.596Z,8.70
2023-01-03T12:20:35.594Z,8.71
2023-01-03T12:21:35.595Z,8.73
2023-01-03T12:22:35.593Z,8.73
2023-01-03T12:23:35.577Z,8.73
2023-01-03T12:24:35.564Z,8.73
2023-01-03T12:25:35.511Z,8.73
2023-01-03T12:26:35.509Z,8.75
2023-01-03T12:27:35.482Z,8.75
2023-01-03T12:28:35.467Z,8.76
2023-01-03T12:29:35.468Z,8.76
2023-01-03T12:30:35.453Z,8.78
2023-01-03T12:31:35.574Z,8.79
2023-01-03T12:32:35.442Z,8.79
2023-01-03T12:33:35.453Z,8.76
2023-01-03T12:34:35.401Z,8.78
2023-01-03T12:35:35.395Z,8.79
2023-01-03T12:36:35.397Z,8.78
2023-01-03T12:37:35.376Z,8.79
2023-01-03T12:38:35.372Z,8.79
2023-01-03T12:39:35.379Z,8.80
2023-01-03T12:40:35.381Z,8.80
2023-01-03T12:41:35.350Z,8.82
2023-01-03T12:42:35.324Z,8.82
2023-01-03T12:43:35.310Z,8.82
2023-01-03T12:44:35.290Z,8.82
2023-01-03T12:45:35.358Z,8.83
2023-01-03T12:46:35.325Z,8.88
2023-01-03T12:47:35.275Z,8.86
2023-01-03T12:48:35.349Z,8.85
2023-01-03T12:49:35.294Z,8.85
2023-01-03T12:50:35.247Z,8.86
2023-01-03T12:51:35.237Z,8.85
2023-01-03T12:52:35.214Z,8.85
2023-01-03T12:53:35.206Z,8.86
2023-01-03T12:54:35.208Z,8.83
2023-01-03T12:55:35.174Z,8.85
2023-01-03T12:56:35.198Z,8.82
2023-01-03T12:57:35.152Z,8.82
2023-01-03T12:58:39.301Z,8.82
2023-01-03T12:59:35.136Z,8.79
2023-01-03T13:00:35.119Z,8.78
2023-01-03T13:01:35.244Z,8.76
2023-01-03T13:02:35.438Z,8.76
2023-01-03T13:03:35.186Z,8.78
2023-01-03T13:04:35.077Z,8.78
2023-01-03T13:05:35.067Z,8.78
2023-01-03T13:06:35.094Z,8.79
2023-01-03T13:07:35.070Z,8.79
2023-01-03T13:08:35.091Z,8.82
2023-01-03T13:09:35.033Z,8.82
2023-01-03T13:10:35.015Z,8.83
2023-01-03T13:11:35.032Z,8.82
2023-01-03T13:12:35.040Z,8.80
2023-01-03T13:13:34.977Z,8.79
2023-01-03T13:14:34.968Z,8.78
2023-01-03T13:15:36.952Z,8.79
2023-01-03T13:16:35.043Z,8.80
2023-01-03T13:17:34.946Z,8.79
2023-01-03T13:18:34.931Z,8.80
2023-01-03T13:19:34.910Z,8.83
2023-01-03T13:20:34.901Z,8.83
2023-01-03T13:21:34.893Z,8.83
2023-01-03T13:22:34.886Z,8.83
2023-01-03T13:23:34.877Z,8.88
2023-01-03T13:24:34.868Z,8.88
2023-01-03T13:25:34.846Z,8.91
2023-01-03T13:26:34.836Z,8.91
2023-01-03T13:27:34.844Z,8.91
2023-01-03T13:28:34.808Z,8.91
2023-01-03T13:29:34.859Z,8.93
2023-01-03T13:30:34.796Z,8.96
2023-01-03T13:31:34.836Z,8.97
2023-01-03T13:32:38.323Z,8.97
2023-01-03T13:33:34.775Z,8.97
2023-01-03T13:34:34.784Z,8.97
2023-01-03T13:35:34.733Z,8.98
2023-01-03T13:36:34.714Z,8.98
2023-01-03T13:37:34.718Z,8.97
2023-01-03T13:38:34.699Z,8.97
2023-01-03T13:39:34.687Z,8.98
2023-01-03T13:41:08.004Z,8.98
2023-01-03T13:41:34.895Z,9.00